Time;durP1;ratioP1;P1;durP2;ratioP2;P2;SDS_P1;SDS_P2;PMS_P1;PMS_P2;Temp;Humidity;BMP_temperature;BMP_pressure;BME280_temperature;BME280_humidity;BME280_pressure;Samples;Min_cycle;Max_cycle;Signal;HPM_P1;HPM_P2
2021/09/10 00:04:56;;;;;;;14.40;8.77;;;;;;;22.57;58.94;100993.59;10522624;28;20040;-76
2021/09/10 00:09:57;;;;;;;20.20;8.15;;;;;;;22.17;58.11;100904.16;10522538;28;20028;-76
2021/09/10 00:14:57;;;;;;;17.88;8.13;;;;;;;22.96;58.72;101049.94;10522356;28;20111;-76
2021/09/10 00:19:57;;;;;;;10.68;8.80;;;;;;;23.00;58.45;101052.97;10541306;28;20111;-75
2021/09/10 00:24:58;;;;;;;13.65;9.88;;;;;;;22.93;58.88;101041.34;10521228;28;20040;-75
2021/09/10 00:29:58;;;;;;;13.65;12.25;;;;;;;22.81;58.62;101014.00;10539748;28;20077;-76
2021/09/10 00:34:59;;;;;;;18.58;11.57;;;;;;;22.32;58.76;100939.22;10540214;28;20052;-75
2021/09/10 00:39:59;;;;;;;13.35;11.98;;;;;;;22.08;59.23;100933.34;10521704;28;20040;-76
2021/09/10 00:44:59;;;;;;;22.55;11.70;;;;;;;22.63;59.20;101033.91;10539718;28;20115;-76
2021/09/10 00:50:00;;;;;;;14.13;11.07;;;;;;;21.99;58.82;100946.88;10538901;28;20058;-76
2021/09/10 00:55:00;;;;;;;15.15;11.68;;;;;;;22.44;59.01;101017.84;10520217;28;20105;-75
2021/09/10 01:00:01;;;;;;;15.27;12.88;;;;;;;22.31;59.18;100978.94;10521532;28;20111;-74
2021/09/10 01:05:01;;;;;;;17.60;13.50;;;;;;;22.63;59.85;101020.91;10521398;28;20534;-76
2021/09/10 01:10:02;;;;;;;16.23;14.57;;;;;;;22.87;59.27;101021.19;10526965;28;20043;-76
2021/09/10 01:15:03;;;;;;;16.35;13.80;;;;;;;22.91;59.20;101002.97;10529824;28;20036;-76
2021/09/10 01:20:05;;;;;;;16.73;13.35;;;;;;;23.17;59.20;101022.31;10546572;28;20109;-76
2021/09/10 01:25:13;;;;;;;17.40;15.20;;;;;;;23.15;59.24;101017.03;10544823;28;20059;-76
2021/09/10 01:30:16;;;;;;;24.33;15.00;;;;;;;23.25;59.48;101024.47;10527428;28;20459;-76
2021/09/10 01:35:16;;;;;;;16.92;13.80;;;;;;;23.24;58.83;101003.50;10528653;28;20071;-76
2021/09/10 01:40:16;;;;;;;19.75;15.35;;;;;;;23.39;58.84;101019.22;10545217;28;20048;-76
2021/09/10 01:45:17;;;;;;;18.05;13.10;;;;;;;23.48;58.19;101016.69;10527657;28;20036;-76
2021/09/10 01:50:18;;;;;;;22.10;14.40;;;;;;;23.43;57.88;100993.50;10545539;28;20054;-76
2021/09/10 01:55:18;;;;;;;17.33;13.95;;;;;;;23.34;58.13;100981.34;10543618;28;20121;-76
2021/09/10 02:00:19;;;;;;;19.42;15.30;;;;;;;23.46;58.47;101008.69;10544552;28;20040;-76
2021/09/10 02:05:19;;;;;;;20.25;13.48;;;;;;;23.46;58.28;100994.03;10527477;28;20463;-76
2021/09/10 02:10:20;;;;;;;15.95;12.55;;;;;;;23.48;58.63;101020.28;10526617;28;20032;-76
2021/09/10 02:15:20;;;;;;;18.33;13.35;;;;;;;23.47;58.37;101020.56;10543982;28;20036;-76
2021/09/10 02:20:21;;;;;;;23.33;12.93;;;;;;;23.34;58.40;100991.59;10543592;28;20036;-76
2021/09/10 02:25:21;;;;;;;17.45;14.20;;;;;;;23.44;58.23;101017.25;10524833;28;20036;-76
2021/09/10 02:30:21;;;;;;;20.05;13.85;;;;;;;22.30;59.17;100856.72;10525387;28;20028;-76
2021/09/10 02:35:22;;;;;;;14.52;12.45;;;;;;;23.31;59.03;101025.31;10525099;28;20036;-76
2021/09/10 02:40:22;;;;;;;16.55;13.00;;;;;;;23.18;59.13;101023.94;10543415;28;20036;-75
2021/09/10 02:45:23;;;;;;;17.33;14.95;;;;;;;23.10;58.85;101030.03;10525759;28;20040;-75
2021/09/10 02:50:23;;;;;;;19.05;13.32;;;;;;;22.95;58.98;101051.03;10546396;28;20422;-74
2021/09/10 02:55:23;;;;;;;16.48;14.73;;;;;;;22.24;59.68;100919.34;10542185;28;20052;-76
2021/09/10 03:00:24;;;;;;;21.65;13.85;;;;;;;23.02;60.09;101028.66;10524491;28;20032;-76
2021/09/10 03:05:24;;;;;;;17.02;13.93;;;;;;;22.33;60.39;100914.09;10542477;28;20032;-76
2021/09/10 03:10:25;;;;;;;22.10;15.13;;;;;;;23.07;59.87;101028.66;10542162;28;20123;-76
2021/09/10 03:15:25;;;;;;;19.00;14.10;;;;;;;22.62;60.73;100949.41;10523874;28;20089;-76
2021/09/10 03:20:26;;;;;;;22.70;15.05;;;;;;;22.86;60.52;100991.09;10541390;28;20533;-76
2021/09/10 03:25:26;;;;;;;15.95;13.77;;;;;;;23.19;60.38;101039.41;10522392;28;20032;-76
2021/09/10 03:30:27;;;;;;;20.58;15.38;;;;;;;22.36;60.58;100910.78;10541025;28;20059;-76
2021/09/10 03:35:27;;;;;;;21.02;14.75;;;;;;;21.94;61.11;100842.06;10540448;28;20077;-76
2021/09/10 03:40:31;;;;;;;19.58;14.05;;;;;;;23.08;60.85;101024.78;10522575;28;20089;-75
2021/09/10 03:45:31;;;;;;;18.45;16.17;;;;;;;22.71;60.75;100980.88;10540674;28;20047;-76
2021/09/10 03:50:32;;;;;;;20.83;14.93;;;;;;;22.76;61.22;101011.25;10540315;28;20119;-76
2021/09/10 03:55:32;;;;;;;20.15;14.82;;;;;;;22.83;60.70;101028.38;10539634;28;20048;-76
2021/09/10 04:00:33;;;;;;;19.48;15.50;;;;;;;21.91;60.55;100895.00;10524828;28;20032;-75
2021/09/10 04:05:33;;;;;;;23.85;14.73;;;;;;;22.44;61.04;101014.28;10541094;28;20024;-77
2021/09/10 04:10:33;;;;;;;19.63;16.15;;;;;;;22.53;61.11;101034.72;10521903;28;20501;-76
2021/09/10 04:15:34;;;;;;;23.98;16.77;;;;;;;22.35;61.74;101005.69;10540574;28;20064;-76
2021/09/10 04:20:34;;;;;;;19.88;15.98;;;;;;;22.28;61.81;100994.94;10522054;28;20411;-76
2021/09/10 04:25:35;;;;;;;20.83;16.20;;;;;;;22.54;62.08;101039.13;10520648;28;20090;-76
2021/09/10 04:30:35;;;;;;;19.98;16.50;;;;;;;22.29;61.92;100987.47;10521348;28;20486;-76
2021/09/10 04:35:35;;;;;;;23.00;17.75;;;;;;;22.63;61.96;101039.41;10539230;28;20064;-76
2021/09/10 04:40:36;;;;;;;24.88;18.95;;;;;;;22.23;61.82;100974.78;10539826;28;20040;-76
2021/09/10 04:45:36;;;;;;;24.88;15.77;;;;;;;22.61;61.47;101036.09;10545060;28;20039;-77
2021/09/10 04:50:36;;;;;;;24.27;18.75;;;;;;;22.41;61.41;101009.31;10546617;28;20043;-77
2021/09/10 04:55:37;;;;;;;25.70;17.63;;;;;;;22.36;61.57;101012.88;10546629;28;20407;-73
2021/09/10 05:00:37;;;;;;;21.70;17.42;;;;;;;21.93;61.39;100957.06;10543078;28;20028;-71
2021/09/10 05:05:37;;;;;;;26.73;17.95;;;;;;;22.32;61.93;101033.00;10465265;28;20134;-74
2021/09/10 05:10:38;;;;;;;19.77;17.60;;;;;;;20.10;61.19;100690.84;10504789;28;20055;-74
2021/09/10 05:15:38;;;;;;;27.17;17.17;;;;;;;21.82;61.51;100969.13;10505376;28;20361;-75
2021/09/10 05:20:40;;;;;;;26.70;17.65;;;;;;;22.17;61.70;101034.63;10504348;28;20044;-74
2021/09/10 05:25:40;;;;;;;21.77;18.38;;;;;;;22.17;62.54;101051.16;10503068;28;20107;-74
2021/09/10 05:30:41;;;;;;;24.33;18.27;;;;;;;21.94;61.67;101002.81;10487006;28;20099;-75
2021/09/10 05:35:41;;;;;;;24.98;22.00;;;;;;;22.27;62.22;101062.25;10504176;28;20041;-75
2021/09/10 05:40:41;;;;;;;37.67;21.23;;;;;;;22.32;62.92;101060.59;10485504;28;20067;-74
2021/09/10 05:45:42;;;;;;;21.63;19.35;;;;;;;22.10;61.98;101034.03;10484855;28;20071;-75
2021/09/10 05:50:43;;;;;;;26.23;18.95;;;;;;;22.41;62.55;101068.06;10484267;28;20051;-74
2021/09/10 05:55:43;;;;;;;28.45;19.38;;;;;;;22.48;61.57;101070.56;10538787;28;20111;-74
2021/09/10 06:00:44;;;;;;;20.88;17.77;;;;;;;22.68;61.00;101042.16;10544683;28;20032;-75
2021/09/10 06:05:45;;;;;;;27.02;18.60;;;;;;;22.80;61.59;101050.19;10526861;28;20036;-75
2021/09/10 06:10:46;;;;;;;24.15;18.95;;;;;;;22.93;60.49;101049.63;10544399;28;20089;-74
2021/09/10 06:15:47;;;;;;;23.13;16.80;;;;;;;22.70;61.52;101017.88;10525846;28;20460;-75
2021/09/10 06:20:47;;;;;;;24.02;15.38;;;;;;;23.15;61.24;101088.03;10543921;28;20165;-75
2021/09/10 06:25:48;;;;;;;19.40;16.02;;;;;;;23.33;61.41;101098.53;10542195;28;20047;-75
2021/09/10 06:30:48;;;;;;;19.55;13.57;;;;;;;22.76;60.64;100964.31;10544671;28;20036;-75
2021/09/10 06:35:49;;;;;;;19.52;12.98;;;;;;;23.68;60.64;101099.59;10542931;28;20536;-75
2021/09/10 06:40:49;;;;;;;20.63;14.73;;;;;;;23.81;60.29;101115.59;10524411;28;20036;-75
2021/09/10 06:45:50;;;;;;;17.77;14.82;;;;;;;23.70;60.83;101119.50;10542700;28;20104;-74
2021/09/10 06:50:50;;;;;;;20.70;14.18;;;;;;;23.99;59.43;101122.44;10542111;28;20077;-75
2021/09/10 06:55:51;;;;;;;25.65;13.93;;;;;;;23.83;60.90;101121.66;10541405;28;20060;-75
2021/09/10 07:00:51;;;;;;;16.05;12.68;;;;;;;23.92;61.29;101123.88;10542388;28;20408;-75
2021/09/10 07:05:52;;;;;;;23.15;13.13;;;;;;;24.17;60.50;101132.06;10542045;28;20039;-75
2021/09/10 07:10:52;;;;;;;15.02;12.75;;;;;;;23.96;60.49;101075.16;10523594;28;20441;-74
2021/09/10 07:15:53;;;;;;;19.83;12.70;;;;;;;24.79;59.39;101144.53;10541403;28;20089;-75
2021/09/10 07:20:53;;;;;;;17.77;12.00;;;;;;;24.73;58.98;101117.97;10541305;28;20532;-75
2021/09/10 07:25:54;;;;;;;12.27;10.57;;;;;;;24.82;58.54;101119.03;10540325;28;20042;-75
2021/09/10 07:30:54;;;;;;;14.93;9.82;;;;;;;24.45;58.12;101068.88;10522760;28;20122;-74
2021/09/10 07:35:55;;;;;;;9.48;8.13;;;;;;;24.73;58.54;101129.03;10523021;28;20032;-74
2021/09/10 07:40:56;;;;;;;14.30;9.10;;;;;;;24.98;58.51;101163.22;10541374;28;20400;-74
2021/09/10 07:45:56;;;;;;;16.92;9.45;;;;;;;25.32;57.62;101160.50;10540495;28;20035;-75
2021/09/10 07:50:57;;;;;;;9.30;8.43;;;;;;;26.19;56.30;101157.66;10521444;28;20028;-75
2021/09/10 07:55:57;;;;;;;8.23;7.45;;;;;;;27.97;52.32;101163.56;10520727;28;20056;-75
2021/09/10 08:00:58;;;;;;;7.70;6.97;;;;;;;29.50;49.21;101170.47;10540285;28;20039;-75
2021/09/10 08:05:58;;;;;;;11.57;8.93;;;;;;;29.28;48.65;101166.53;10539365;28;20036;-75
2021/09/10 08:10:59;;;;;;;9.95;7.45;;;;;;;28.92;49.33;101170.16;10539204;28;20028;-75
2021/09/10 08:15:59;;;;;;;10.23;6.18;;;;;;;28.24;49.59;101132.94;10520720;28;20040;-75
2021/09/10 08:21:00;;;;;;;6.45;5.88;;;;;;;27.86;49.91;101087.81;10545997;28;20048;-75
2021/09/10 08:26:00;;;;;;;8.43;6.72;;;;;;;27.75;49.92;101167.84;10547191;28;20024;-75
2021/09/10 08:31:01;;;;;;;18.52;6.88;;;;;;;26.71;51.29;101043.09;10547623;28;20491;-75
2021/09/10 08:36:02;;;;;;;8.57;7.22;;;;;;;27.15;51.57;101184.44;10547237;28;20050;-75
2021/09/10 08:41:03;;;;;;;10.23;7.70;;;;;;;26.85;52.55;101216.28;10546710;28;20542;-75
2021/09/10 08:46:03;;;;;;;9.30;7.35;;;;;;;26.95;52.19;101199.47;10528921;28;20032;-75
2021/09/10 08:51:04;;;;;;;9.80;8.45;;;;;;;26.47;52.59;101165.38;10546648;28;20474;-74
2021/09/10 08:56:04;;;;;;;9.48;8.57;;;;;;;26.08;53.39;101170.03;10528047;28;20070;-75
2021/09/10 09:01:05;;;;;;;15.35;10.50;;;;;;;25.93;53.49;101187.66;10546934;28;20115;-75
2021/09/10 09:06:05;;;;;;;13.10;9.10;;;;;;;26.02;53.88;101221.16;10547051;28;20039;-74
2021/09/10 09:11:07;;;;;;;13.07;11.00;;;;;;;26.00;54.06;101225.34;10547394;28;20046;-75
2021/09/10 09:16:13;;;;;;;14.00;12.45;;;;;;;25.93;54.21;101268.13;10528216;28;20039;-75
2021/09/10 09:21:14;;;;;;;15.75;13.43;;;;;;;25.72;54.45;101238.91;10545925;28;20044;-75
2021/09/10 09:26:23;;;;;;;19.08;16.63;;;;;;;25.35;55.14;101215.34;10545942;28;20035;-75
2021/09/10 09:31:23;;;;;;;17.05;15.25;;;;;;;25.21;54.97;101186.66;10545127;28;20024;-75
2021/09/10 09:36:24;;;;;;;17.67;15.82;;;;;;;24.45;55.03;101086.31;10510411;28;20047;-75
2021/09/10 09:41:25;;;;;;;23.45;16.13;;;;;;;25.06;55.34;101185.59;10545561;28;20374;-75
2021/09/10 09:46:29;;;;;;;21.50;16.08;;;;;;;25.41;55.38;101244.69;10544797;28;20465;-75
2021/09/10 09:51:29;;;;;;;19.63;14.80;;;;;;;25.73;55.14;101252.47;10526075;28;20036;-75
2021/09/10 09:56:30;;;;;;;20.75;14.57;;;;;;;25.52;54.76;101221.31;10544555;28;20044;-75
2021/09/10 10:01:32;;;;;;;17.27;12.77;;;;;;;25.74;54.50;101253.28;10510344;28;20051;-75
2021/09/10 10:06:32;;;;;;;18.02;13.05;;;;;;;25.34;55.80;101241.44;10509705;28;20043;-75
2021/09/10 10:11:49;;;;;;;14.93;13.43;;;;;;;25.65;55.35;101264.19;10509585;28;20516;-75
2021/09/10 10:16:51;;;;;;;23.40;14.48;;;;;;;26.03;55.10;101247.78;10525715;28;20046;-74
2021/09/10 10:22:08;;;;;;;23.10;12.20;;;;;;;27.11;53.14;101250.91;10524908;28;20123;-75
2021/09/10 10:27:40;;;;;;;18.25;12.52;;;;;;;28.60;51.27;101240.03;10542619;28;20068;-75
2021/09/10 10:32:58;;;;;;;9.68;8.77;;;;;;;28.70;49.17;101246.19;10543342;28;20077;-75
2021/09/10 10:38:01;;;;;;;10.35;8.85;;;;;;;28.89;48.79;101239.66;10542481;28;20058;-75
2021/09/10 10:43:03;;;;;;;10.05;7.82;;;;;;;28.95;47.79;101244.81;10541674;28;20031;-75
2021/09/10 10:48:04;;;;;;;14.13;8.27;;;;;;;29.64;47.96;101249.38;10542021;28;20039;-75
2021/09/10 10:53:04;;;;;;;9.75;8.43;;;;;;;29.65;46.15;101240.69;10542582;28;20051;-75
2021/09/10 10:58:24;;;;;;;8.65;7.75;;;;;;;28.69;46.16;101124.72;10522930;28;20052;-75
2021/09/10 11:03:24;;;;;;;11.93;8.23;;;;;;;28.83;46.42;101252.88;10507504;28;20055;-74
2021/09/10 11:08:38;;;;;;;15.10;8.40;;;;;;;28.51;47.88;101249.09;10541300;28;20056;-75
2021/09/10 11:13:39;;;;;;;13.27;8.63;;;;;;;28.02;47.88;101219.16;10523179;28;20036;-75
2021/09/10 11:18:40;;;;;;;9.00;7.85;;;;;;;28.49;47.90;101242.19;10541391;28;20081;-75
2021/09/10 11:23:42;;;;;;;11.93;8.45;;;;;;;28.77;47.60;101234.63;10506413;28;20445;-75
2021/09/10 11:28:42;;;;;;;9.32;7.65;;;;;;;29.16;46.81;101227.63;10540711;28;20036;-75
2021/09/10 11:33:44;;;;;;;12.90;11.55;;;;;;;28.87;46.29;101077.47;10540302;28;20081;-75
2021/09/10 11:38:45;;;;;;;7.07;6.50;;;;;;;29.51;44.92;101174.88;10540178;28;20036;-75
2021/09/10 11:43:45;;;;;;;8.32;7.20;;;;;;;28.63;46.01;101069.44;10540640;28;20093;-75
2021/09/10 11:48:48;;;;;;;7.50;6.82;;;;;;;28.66;47.10;101216.50;10540906;28;20028;-75
2021/09/10 11:53:53;;;;;;;12.23;8.13;;;;;;;28.32;48.22;101211.31;10522347;28;20055;-75
2021/09/10 11:58:54;;;;;;;9.63;7.55;;;;;;;27.45;49.26;101182.31;10540738;28;20391;-75
2021/09/10 12:04:02;;;;;;;26.00;8.75;;;;;;;27.65;49.75;101215.31;10539410;28;20047;-75
2021/09/10 12:09:18;;;;;;;10.82;6.75;;;;;;;27.92;49.38;101220.19;10539556;28;20110;-75
2021/09/10 12:14:19;;;;;;;10.73;9.23;;;;;;;27.69;49.60;101204.41;10539625;28;20043;-75
2021/09/10 12:19:19;;;;;;;9.57;8.68;;;;;;;26.66;50.59;101117.06;10539616;28;20032;-75
2021/09/10 12:24:19;;;;;;;13.45;10.05;;;;;;;27.24;50.45;101226.31;10520980;28;20036;-75
2021/09/10 12:29:25;;;;;;;10.00;9.02;;;;;;;26.51;51.29;101145.06;10539181;28;20024;-75
2021/09/10 12:34:25;;;;;;;11.93;10.10;;;;;;;26.06;51.04;101068.75;10539407;28;20120;-75
2021/09/10 12:39:29;;;;;;;15.70;9.45;;;;;;;26.89;50.87;101220.09;10539408;28;20524;-75
2021/09/10 12:44:30;;;;;;;16.08;10.25;;;;;;;26.91;50.66;101212.31;10539334;28;20391;-74
2021/09/10 12:49:30;;;;;;;11.55;8.35;;;;;;;27.05;50.61;101221.53;10538797;28;20039;-75
2021/09/10 12:54:33;;;;;;;18.40;7.55;;;;;;;26.48;49.95;101115.13;10538124;28;20084;-75
2021/09/10 12:59:33;;;;;;;7.75;5.80;;;;;;;26.97;50.42;101233.34;10538459;28;20036;-75
2021/09/10 13:04:33;;;;;;;6.88;5.97;;;;;;;26.70;50.70;101236.75;10540930;28;20040;-75
2021/09/10 13:09:34;;;;;;;5.57;5.18;;;;;;;26.10;50.74;101130.84;10546156;28;20032;-74
2021/09/10 13:14:34;;;;;;;8.82;6.85;;;;;;;26.28;51.64;101243.91;10545841;28;20407;-75
2021/09/10 13:19:35;;;;;;;7.13;6.60;;;;;;;25.80;52.19;101198.59;10545906;28;20035;-75
2021/09/10 13:24:35;;;;;;;14.00;8.88;;;;;;;25.09;52.52;101086.41;10545129;28;20119;-75
2021/09/10 13:29:36;;;;;;;9.68;8.60;;;;;;;25.73;52.13;101188.66;10545484;28;20449;-75
2021/09/10 13:34:36;;;;;;;16.35;11.07;;;;;;;26.24;51.59;101247.59;10527316;28;20028;-74
2021/09/10 13:39:48;;;;;;;12.77;9.07;;;;;;;26.35;51.53;101249.09;10545068;28;20040;-75
2021/09/10 13:44:49;;;;;;;11.43;8.70;;;;;;;27.01;50.59;101230.78;10528212;28;20035;-75
2021/09/10 13:49:49;;;;;;;12.88;10.88;;;;;;;26.54;49.65;101113.09;10526027;28;20402;-75
2021/09/10 13:54:50;;;;;;;16.52;9.98;;;;;;;27.53;48.87;101234.44;10544540;28;20461;-75
2021/09/10 13:59:50;;;;;;;15.70;9.90;;;;;;;27.68;47.74;101227.81;10544916;28;20080;-75
2021/09/10 14:04:54;;;;;;;15.48;9.07;;;;;;;27.78;47.42;101189.50;10544387;28;20066;-75
2021/09/10 14:09:54;;;;;;;12.95;9.27;;;;;;;26.77;47.49;101066.91;10544084;28;20036;-75
2021/09/10 14:14:55;;;;;;;13.30;10.27;;;;;;;27.18;47.97;101183.84;10542714;28;20032;-75
2021/09/10 14:19:56;;;;;;;27.40;14.27;;;;;;;27.36;48.25;101229.44;10543987;28;20028;-75
2021/09/10 14:24:56;;;;;;;20.60;14.27;;;;;;;26.93;48.70;101237.88;10544129;28;20032;-75
2021/09/10 14:29:56;;;;;;;15.77;14.05;;;;;;;26.61;49.14;101235.75;10545248;28;20028;-75
2021/09/10 14:34:57;;;;;;;22.73;14.23;;;;;;;26.62;49.15;101235.47;10526654;28;20036;-75
2021/09/10 14:39:57;;;;;;;23.75;14.00;;;;;;;26.30;49.20;101200.03;10545276;28;20039;-75
2021/09/10 14:44:57;;;;;;;13.73;11.07;;;;;;;26.55;48.62;101218.34;10526026;28;20043;-75
2021/09/10 14:49:58;;;;;;;9.48;8.25;;;;;;;26.91;48.08;101245.66;10543570;28;20032;-75
2021/09/10 14:54:58;;;;;;;12.02;9.50;;;;;;;26.80;48.14;101244.97;10525090;28;20488;-75
2021/09/10 15:00:10;;;;;;;8.10;7.40;;;;;;;26.25;48.08;101125.13;10542632;28;20032;-75
2021/09/10 15:05:10;;;;;;;12.52;7.82;;;;;;;26.66;47.21;101125.41;10524886;28;20044;-75
2021/09/10 15:10:11;;;;;;;6.25;5.53;;;;;;;27.84;45.47;101218.09;10507915;28;20042;-75
2021/09/10 15:15:12;;;;;;;7.75;7.07;;;;;;;27.96;45.27;101173.88;10542939;28;20399;-75
2021/09/10 15:20:13;;;;;;;8.52;7.70;;;;;;;28.24;44.81;101224.84;10542225;28;20032;-75
2021/09/10 15:25:16;;;;;;;14.13;8.32;;;;;;;28.01;45.03;101195.22;10523799;28;20039;-74
2021/09/10 15:30:17;;;;;;;8.65;7.72;;;;;;;28.49;45.05;101223.53;10541671;28;20032;-74
2021/09/10 15:35:17;;;;;;;6.85;5.80;;;;;;;28.24;44.52;101198.97;10542275;28;20104;-75
2021/09/10 15:40:18;;;;;;;8.60;5.55;;;;;;;28.36;44.34;101223.47;10541628;28;20135;-75
2021/09/10 15:45:19;;;;;;;4.88;4.47;;;;;;;28.08;44.65;101228.22;10542008;28;20487;-75
2021/09/10 15:50:19;;;;;;;13.48;6.35;;;;;;;28.00;44.94;101226.97;10523103;28;20040;-74
2021/09/10 15:55:20;;;;;;;10.52;5.82;;;;;;;27.75;45.60;101228.22;10522193;28;20060;-75
2021/09/10 16:00:21;;;;;;;7.95;6.93;;;;;;;27.35;46.54;101216.69;10523366;28;20046;-75
2021/09/10 16:05:23;;;;;;;12.32;5.82;;;;;;;27.01;46.74;101203.81;10522440;28;20036;-75
2021/09/10 16:10:24;;;;;;;4.70;4.22;;;;;;;26.96;46.64;101170.53;10521449;28;20043;-74
2021/09/10 16:15:25;;;;;;;3.45;3.25;;;;;;;27.06;46.75;101202.94;10521872;28;20075;-75
2021/09/10 16:20:25;;;;;;;9.80;4.57;;;;;;;26.27;46.89;101130.38;10521730;28;20035;-75
2021/09/10 16:25:26;;;;;;;4.57;4.18;;;;;;;26.39;47.65;101192.69;10539205;28;20055;-75
2021/09/10 16:30:26;;;;;;;16.02;5.57;;;;;;;25.87;48.17;101097.28;10520952;28;20092;-75
2021/09/10 16:35:27;;;;;;;6.85;4.05;;;;;;;26.35;48.00;101157.47;10504538;28;20181;-75
2021/09/10 16:40:27;;;;;;;8.73;5.63;;;;;;;26.87;47.58;101211.25;10543318;28;20390;-75
2021/09/10 16:45:28;;;;;;;9.43;6.00;;;;;;;26.37;48.21;101199.66;10529500;28;20040;-75
2021/09/10 16:50:29;;;;;;;16.35;7.93;;;;;;;26.26;48.80;101223.09;10547473;28;20032;-75
2021/09/10 16:55:29;;;;;;;9.13;6.82;;;;;;;26.14;48.92;101231.88;10546668;28;20062;-75
2021/09/10 17:00:30;;;;;;;9.73;7.72;;;;;;;25.63;49.96;101202.66;10547018;28;20035;-75
2021/09/10 17:05:30;;;;;;;17.40;13.90;;;;;;;25.35;50.11;101195.13;10546529;28;20502;-75
2021/09/10 17:10:31;;;;;;;7.43;6.13;;;;;;;25.28;51.10;101251.72;10545947;28;20036;-75
2021/09/10 17:15:31;;;;;;;7.95;7.15;;;;;;;24.10;51.51;101101.13;10528909;28;20028;-74
2021/09/10 17:20:32;;;;;;;12.45;7.18;;;;;;;24.08;52.04;101118.00;10546118;28;20044;-75
2021/09/10 17:25:32;;;;;;;10.45;6.65;;;;;;;24.80;51.82;101254.19;10546343;28;20073;-75
2021/09/10 17:30:33;;;;;;;8.93;5.97;;;;;;;24.17;52.59;101195.72;10528630;28;20032;-75
2021/09/10 17:35:34;;;;;;;9.90;7.32;;;;;;;24.32;53.12;101262.09;10548628;28;20038;-75
2021/09/10 17:40:34;;;;;;;6.97;5.72;;;;;;;24.08;53.41;101236.13;10545430;28;20105;-75
2021/09/10 17:45:34;;;;;;;18.40;7.53;;;;;;;23.32;53.91;101162.34;10544922;28;20067;-75
2021/09/10 17:50:35;;;;;;;18.60;6.85;;;;;;;22.79;53.51;101073.38;10525567;28;20024;-75
2021/09/10 17:55:35;;;;;;;10.68;7.32;;;;;;;22.85;54.91;101133.03;10509098;28;20044;-75
2021/09/10 18:00:36;;;;;;;11.88;8.55;;;;;;;23.61;55.20;101284.25;10526411;28;20053;-75
2021/09/10 18:05:38;;;;;;;8.38;7.07;;;;;;;23.09;55.48;101243.84;10544225;28;20040;-74
2021/09/10 18:10:38;;;;;;;9.10;6.82;;;;;;;22.91;55.64;101215.63;10543776;28;20501;-75
2021/09/10 18:15:39;;;;;;;21.63;8.18;;;;;;;23.32;55.46;101298.59;10509045;28;20044;-75
2021/09/10 18:20:39;;;;;;;19.13;7.25;;;;;;;23.25;55.93;101305.50;10543388;28;20059;-75
2021/09/10 18:25:39;;;;;;;16.10;8.07;;;;;;;23.20;56.18;101311.84;10542265;28;20056;-75
2021/09/10 18:30:40;;;;;;;12.70;8.88;;;;;;;23.18;56.19;101300.22;10525498;28;20486;-74
2021/09/10 18:35:41;;;;;;;12.25;6.95;;;;;;;23.48;55.63;101326.25;10543752;28;20122;-75
2021/09/10 18:40:41;;;;;;;7.97;5.50;;;;;;;23.52;55.36;101322.69;10543853;28;20036;-74
2021/09/10 18:45:41;;;;;;;7.75;5.80;;;;;;;23.48;55.40;101309.69;10543249;28;20064;-74
2021/09/10 18:50:42;;;;;;;17.35;6.82;;;;;;;23.62;54.86;101342.06;10485795;28;20097;-74
2021/09/10 18:55:43;;;;;;;5.10;4.68;;;;;;;23.64;54.86;101358.34;10542429;28;20355;-73
2021/09/10 19:00:43;;;;;;;5.28;4.38;;;;;;;23.65;55.16;101355.34;10524286;28;20040;-74
2021/09/10 19:05:43;;;;;;;4.68;4.22;;;;;;;23.63;55.18;101340.94;10542991;28;20032;-73
2021/09/10 19:10:44;;;;;;;4.97;4.47;;;;;;;23.66;55.12;101361.69;10524565;28;20032;-73
2021/09/10 19:15:44;;;;;;;8.90;4.70;;;;;;;23.44;55.17;101323.22;10542062;28;20040;-73
2021/09/10 19:20:44;;;;;;;5.05;3.92;;;;;;;23.30;55.30;101328.44;10542329;28;20388;-73
2021/09/10 19:25:45;;;;;;;4.40;4.03;;;;;;;23.41;55.36;101346.69;10541334;28;20040;-74
2021/09/10 19:30:45;;;;;;;3.90;3.20;;;;;;;23.52;54.95;101360.56;10542639;28;20166;-75
2021/09/10 19:35:46;;;;;;;3.63;3.33;;;;;;;23.44;55.01;101359.97;10542327;28;20047;-74
2021/09/10 19:40:46;;;;;;;6.07;2.92;;;;;;;22.52;54.87;101231.75;10541569;28;20040;-73
2021/09/10 19:45:48;;;;;;;7.95;2.70;;;;;;;22.89;54.98;101331.03;10523177;28;20043;-73
2021/09/10 19:50:48;;;;;;;3.75;2.70;;;;;;;22.15;55.65;101240.91;10523407;28;20059;-73
2021/09/10 19:55:49;;;;;;;5.47;3.45;;;;;;;22.01;55.53;101248.81;10541005;28;20088;-74
2021/09/10 20:00:49;;;;;;;6.72;3.50;;;;;;;21.75;54.96;101209.22;10541840;28;20024;-75
2021/09/10 20:05:50;;;;;;;9.63;2.13;;;;;;;22.58;55.57;101362.34;10540754;28;20039;-73
2021/09/10 20:10:50;;;;;;;6.53;3.05;;;;;;;21.85;55.40;101277.38;10539394;28;20035;-73
2021/09/10 20:15:50;;;;;;;4.22;2.13;;;;;;;22.16;56.45;101368.66;10539003;28;20464;-73
2021/09/10 20:20:51;;;;;;;2.17;1.85;;;;;;;22.18;56.32;101369.25;10538461;28;20454;-73
2021/09/10 20:25:54;;;;;;;2.83;2.42;;;;;;;22.15;56.17;101375.25;10539069;28;20135;-73
2021/09/10 20:30:54;;;;;;;6.10;2.22;;;;;;;21.46;55.90;101279.53;10538964;28;20063;-75
2021/09/10 20:35:55;;;;;;;11.30;2.63;;;;;;;21.45;56.34;101286.13;10521488;28;20060;-74
2021/09/10 20:40:55;;;;;;;5.47;2.45;;;;;;;21.18;55.67;101255.78;10538892;28;20044;-74
2021/09/10 20:45:56;;;;;;;3.90;1.92;;;;;;;20.98;56.57;101239.91;10539011;28;20059;-74
2021/09/10 20:50:57;;;;;;;3.47;2.92;;;;;;;21.60;56.15;101352.41;10538962;28;20070;-74
2021/09/10 20:55:57;;;;;;;4.13;2.63;;;;;;;21.84;57.22;101388.75;10538416;28;20097;-74
2021/09/10 21:00:58;;;;;;;6.90;2.70;;;;;;;22.13;56.78;101399.50;10539486;28;20085;-74
2021/09/10 21:05:58;;;;;;;4.43;2.45;;;;;;;21.55;56.28;101292.56;10538472;28;20040;-74
2021/09/10 21:10:59;;;;;;;2.15;2.00;;;;;;;22.41;55.68;101407.50;10538238;28;20032;-74
2021/09/10 21:15:59;;;;;;;9.43;1.92;;;;;;;22.31;55.77;101379.00;10538827;28;20051;-74
2021/09/10 21:20:59;;;;;;;1.55;1.45;;;;;;;22.06;55.92;101364.69;10538160;28;20032;-73
2021/09/10 21:26:00;;;;;;;3.60;2.00;;;;;;;22.51;55.51;101404.78;10540926;28;20039;-73
2021/09/10 21:31:00;;;;;;;5.78;2.63;;;;;;;22.47;55.87;101400.09;10545543;28;20438;-73
2021/09/10 21:36:01;;;;;;;1.83;1.73;;;;;;;22.41;56.53;101412.19;10527987;28;20040;-74
2021/09/10 21:41:01;;;;;;;4.82;2.63;;;;;;;21.99;56.73;101339.28;10545509;28;20032;-75
2021/09/10 21:46:01;;;;;;;5.10;3.08;;;;;;;22.50;56.56;101411.44;10545336;28;20040;-75
2021/09/10 21:51:02;;;;;;;4.05;2.42;;;;;;;22.39;56.98;101406.91;10527412;28;20047;-74
2021/09/10 21:56:03;;;;;;;3.03;2.35;;;;;;;21.42;57.55;101283.91;10526508;28;20091;-75
2021/09/10 22:01:03;;;;;;;5.82;2.47;;;;;;;22.12;57.41;101408.88;10546854;28;20036;-75
2021/09/10 22:06:03;;;;;;;3.50;2.25;;;;;;;21.14;58.55;101308.63;10546118;28;20064;-75
2021/09/10 22:11:04;;;;;;;6.85;2.80;;;;;;;21.66;59.33;101411.16;10509722;28;20089;-74
2021/09/10 22:16:04;;;;;;;7.70;3.05;;;;;;;20.26;59.47;101210.63;10543018;28;20483;-74
2021/09/10 22:21:05;;;;;;;4.60;2.78;;;;;;;20.49;60.46;101273.69;10544316;28;20039;-75
2021/09/10 22:26:05;;;;;;;11.20;3.45;;;;;;;20.42;59.86;101281.25;10525029;28;20036;-74
2021/09/10 22:31:05;;;;;;;4.95;2.47;;;;;;;20.85;60.51;101363.06;10545295;28;20035;-75
2021/09/10 22:36:08;;;;;;;3.88;3.33;;;;;;;21.14;60.15;101412.47;10542888;28;20044;-75
2021/09/10 22:41:08;;;;;;;8.73;3.78;;;;;;;20.16;60.65;101261.66;10526320;28;20135;-75
2021/09/10 22:46:09;;;;;;;6.70;3.55;;;;;;;19.79;61.10;101249.56;10544188;28;20032;-75
2021/09/10 22:51:09;;;;;;;4.22;3.70;;;;;;;20.63;61.08;101381.47;10544683;28;20024;-74